sensor_id;sensor_type;location;lat;lon;timestamp;P1;durP1;ratioP1;P2;durP2;ratioP2
73132;SDS011;61320;52.008;4.530;2023-05-14T00:00:35;24.34;;;24.34;;
73132;SDS011;61320;52.008;4.530;2023-05-14T00:03:00;24.21;;;24.21;;
73132;SDS011;61320;52.008;4.530;2023-05-14T00:05:26;24.13;;;24.13;;
73132;SDS011;61320;52.008;4.530;2023-05-14T00:07:51;24.10;;;24.10;;
73132;SDS011;61320;52.008;4.530;2023-05-14T00:10:17;23.90;;;23.90;;
73132;SDS011;61320;52.008;4.530;2023-05-14T00:12:44;23.74;;;23.74;;
73132;SDS011;61320;52.008;4.530;2023-05-14T00:15:10;23.45;;;23.45;;
73132;SDS011;61320;52.008;4.530;2023-05-14T00:17:35;22.93;;;22.93;;
73132;SDS011;61320;52.008;4.530;2023-05-14T00:20:02;23.44;;;23.44;;
73132;SDS011;61320;52.008;4.530;2023-05-14T00:22:31;23.42;;;23.42;;
73132;SDS011;61320;52.008;4.530;2023-05-14T00:24:57;22.81;;;22.81;;
73132;SDS011;61320;52.008;4.530;2023-05-14T00:27:23;22.83;;;22.83;;
73132;SDS011;61320;52.008;4.530;2023-05-14T00:29:48;23.14;;;23.14;;
73132;SDS011;61320;52.008;4.530;2023-05-14T00:32:14;22.62;;;22.62;;
73132;SDS011;61320;52.008;4.530;2023-05-14T00:34:39;22.56;;;22.56;;
73132;SDS011;61320;52.008;4.530;2023-05-14T00:37:05;22.69;;;22.69;;
73132;SDS011;61320;52.008;4.530;2023-05-14T00:39:30;22.60;;;22.60;;
73132;SDS011;61320;52.008;4.530;2023-05-14T00:41:55;22.87;;;22.87;;
73132;SDS011;61320;52.008;4.530;2023-05-14T00:44:21;22.49;;;22.49;;
73132;SDS011;61320;52.008;4.530;2023-05-14T00:46:46;22.92;;;22.92;;
73132;SDS011;61320;52.008;4.530;2023-05-14T00:49:12;22.93;;;22.93;;
73132;SDS011;61320;52.008;4.530;2023-05-14T00:51:39;22.67;;;22.67;;
73132;SDS011;61320;52.008;4.530;2023-05-14T00:54:05;22.41;;;22.41;;
73132;SDS011;61320;52.008;4.530;2023-05-14T00:56:31;22.32;;;22.32;;
73132;SDS011;61320;52.008;4.530;2023-05-14T00:59:00;22.41;;;22.41;;
73132;SDS011;61320;52.008;4.530;2023-05-14T01:01:25;22.68;;;22.68;;
73132;SDS011;61320;52.008;4.530;2023-05-14T01:03:52;23.11;;;23.11;;
73132;SDS011;61320;52.008;4.530;2023-05-14T01:11:35;22.27;;;22.27;;
73132;SDS011;61320;52.008;4.530;2023-05-14T01:17:03;22.88;;;22.87;;
73132;SDS011;61320;52.008;4.530;2023-05-14T01:22:06;21.59;;;21.59;;
73132;SDS011;61320;52.008;4.530;2023-05-14T01:24:32;22.29;;;22.29;;
73132;SDS011;61320;52.008;4.530;2023-05-14T01:27:16;21.74;;;21.74;;
73132;SDS011;61320;52.008;4.530;2023-05-14T01:29:58;22.00;;;22.00;;
73132;SDS011;61320;52.008;4.530;2023-05-14T01:32:33;21.60;;;21.60;;
73132;SDS011;61320;52.008;4.530;2023-05-14T01:35:01;22.24;;;22.24;;
73132;SDS011;61320;52.008;4.530;2023-05-14T01:37:28;22.25;;;22.25;;
73132;SDS011;61320;52.008;4.530;2023-05-14T01:39:55;22.02;;;21.96;;
73132;SDS011;61320;52.008;4.530;2023-05-14T01:42:22;22.74;;;22.74;;
73132;SDS011;61320;52.008;4.530;2023-05-14T01:44:48;21.95;;;21.95;;
73132;SDS011;61320;52.008;4.530;2023-05-14T01:47:13;22.29;;;22.29;;
73132;SDS011;61320;52.008;4.530;2023-05-14T01:49:38;22.09;;;22.09;;
73132;SDS011;61320;52.008;4.530;2023-05-14T01:52:04;21.39;;;21.39;;
73132;SDS011;61320;52.008;4.530;2023-05-14T01:54:30;21.51;;;21.51;;
73132;SDS011;61320;52.008;4.530;2023-05-14T01:56:55;21.60;;;21.60;;
73132;SDS011;61320;52.008;4.530;2023-05-14T01:59:21;21.30;;;21.30;;
73132;SDS011;61320;52.008;4.530;2023-05-14T02:01:46;21.22;;;21.22;;
73132;SDS011;61320;52.008;4.530;2023-05-14T02:04:12;21.19;;;21.19;;
73132;SDS011;61320;52.008;4.530;2023-05-14T02:06:37;21.53;;;21.53;;
73132;SDS011;61320;52.008;4.530;2023-05-14T02:09:03;21.89;;;21.89;;
73132;SDS011;61320;52.008;4.530;2023-05-14T02:11:29;21.88;;;21.88;;
73132;SDS011;61320;52.008;4.530;2023-05-14T02:13:55;21.41;;;21.41;;
73132;SDS011;61320;52.008;4.530;2023-05-14T02:16:20;21.85;;;21.85;;
73132;SDS011;61320;52.008;4.530;2023-05-14T02:18:46;21.62;;;21.62;;
73132;SDS011;61320;52.008;4.530;2023-05-14T02:21:11;22.03;;;22.02;;
73132;SDS011;61320;52.008;4.530;2023-05-14T02:23:37;21.73;;;21.73;;
73132;SDS011;61320;52.008;4.530;2023-05-14T02:26:02;21.98;;;21.98;;
73132;SDS011;61320;52.008;4.530;2023-05-14T02:28:28;22.09;;;22.06;;
73132;SDS011;61320;52.008;4.530;2023-05-14T02:31:02;23.18;;;23.14;;
73132;SDS011;61320;52.008;4.530;2023-05-14T02:33:27;22.43;;;22.43;;
73132;SDS011;61320;52.008;4.530;2023-05-14T02:35:53;23.14;;;23.14;;
73132;SDS011;61320;52.008;4.530;2023-05-14T02:38:19;23.69;;;23.48;;
73132;SDS011;61320;52.008;4.530;2023-05-14T02:40:45;24.04;;;23.71;;
73132;SDS011;61320;52.008;4.530;2023-05-14T02:43:10;23.89;;;23.89;;
73132;SDS011;61320;52.008;4.530;2023-05-14T02:45:36;24.28;;;23.99;;
73132;SDS011;61320;52.008;4.530;2023-05-14T02:48:01;24.42;;;24.22;;
73132;SDS011;61320;52.008;4.530;2023-05-14T02:50:27;25.04;;;24.95;;
73132;SDS011;61320;52.008;4.530;2023-05-14T02:52:52;25.40;;;25.23;;
73132;SDS011;61320;52.008;4.530;2023-05-14T02:55:18;25.71;;;25.71;;
73132;SDS011;61320;52.008;4.530;2023-05-14T02:57:43;26.38;;;26.25;;
73132;SDS011;61320;52.008;4.530;2023-05-14T03:00:10;26.27;;;26.26;;
73132;SDS011;61320;52.008;4.530;2023-05-14T03:02:36;26.65;;;26.54;;
73132;SDS011;61320;52.008;4.530;2023-05-14T03:05:01;26.63;;;26.52;;
73132;SDS011;61320;52.008;4.530;2023-05-14T03:07:27;26.09;;;25.99;;
73132;SDS011;61320;52.008;4.530;2023-05-14T03:09:53;26.18;;;26.18;;
73132;SDS011;61320;52.008;4.530;2023-05-14T03:12:18;27.87;;;27.53;;
73132;SDS011;61320;52.008;4.530;2023-05-14T03:14:45;27.49;;;27.33;;
73132;SDS011;61320;52.008;4.530;2023-05-14T03:17:10;26.55;;;26.49;;
73132;SDS011;61320;52.008;4.530;2023-05-14T03:19:36;25.97;;;25.85;;
73132;SDS011;61320;52.008;4.530;2023-05-14T03:22:01;25.62;;;25.58;;
73132;SDS011;61320;52.008;4.530;2023-05-14T03:24:27;26.49;;;26.32;;
73132;SDS011;61320;52.008;4.530;2023-05-14T03:26:52;26.47;;;26.37;;
73132;SDS011;61320;52.008;4.530;2023-05-14T03:29:18;25.74;;;25.74;;
73132;SDS011;61320;52.008;4.530;2023-05-14T03:31:43;26.56;;;26.36;;
73132;SDS011;61320;52.008;4.530;2023-05-14T03:34:09;25.80;;;25.51;;
73132;SDS011;61320;52.008;4.530;2023-05-14T03:36:35;26.04;;;26.00;;
73132;SDS011;61320;52.008;4.530;2023-05-14T03:39:01;25.29;;;25.29;;
73132;SDS011;61320;52.008;4.530;2023-05-14T03:41:27;26.13;;;26.03;;
73132;SDS011;61320;52.008;4.530;2023-05-14T03:43:52;26.08;;;26.03;;
73132;SDS011;61320;52.008;4.530;2023-05-14T03:46:18;25.03;;;25.03;;
73132;SDS011;61320;52.008;4.530;2023-05-14T03:48:43;24.67;;;24.66;;
73132;SDS011;61320;52.008;4.530;2023-05-14T03:51:09;24.85;;;24.82;;
73132;SDS011;61320;52.008;4.530;2023-05-14T03:53:35;25.53;;;25.09;;
73132;SDS011;61320;52.008;4.530;2023-05-14T03:56:00;23.32;;;23.23;;
73132;SDS011;61320;52.008;4.530;2023-05-14T03:58:26;24.42;;;24.41;;
73132;SDS011;61320;52.008;4.530;2023-05-14T04:00:51;24.00;;;24.00;;
73132;SDS011;61320;52.008;4.530;2023-05-14T04:03:17;24.54;;;24.49;;
73132;SDS011;61320;52.008;4.530;2023-05-14T04:05:42;25.03;;;25.03;;
73132;SDS011;61320;52.008;4.530;2023-05-14T04:08:07;25.42;;;25.41;;
73132;SDS011;61320;52.008;4.530;2023-05-14T04:10:33;26.03;;;25.97;;
73132;SDS011;61320;52.008;4.530;2023-05-14T04:12:58;25.94;;;25.91;;
73132;SDS011;61320;52.008;4.530;2023-05-14T04:15:24;26.52;;;26.45;;
73132;SDS011;61320;52.008;4.530;2023-05-14T04:17:49;26.43;;;26.38;;
73132;SDS011;61320;52.008;4.530;2023-05-14T04:20:15;26.04;;;26.04;;
73132;SDS011;61320;52.008;4.530;2023-05-14T04:22:40;26.00;;;26.00;;
73132;SDS011;61320;52.008;4.530;2023-05-14T04:25:06;25.99;;;25.99;;
73132;SDS011;61320;52.008;4.530;2023-05-14T04:27:32;25.55;;;25.55;;
73132;SDS011;61320;52.008;4.530;2023-05-14T04:29:58;26.18;;;26.18;;
73132;SDS011;61320;52.008;4.530;2023-05-14T04:32:24;25.06;;;25.06;;
73132;SDS011;61320;52.008;4.530;2023-05-14T04:34:49;24.91;;;24.90;;
73132;SDS011;61320;52.008;4.530;2023-05-14T04:37:15;24.62;;;24.60;;
73132;SDS011;61320;52.008;4.530;2023-05-14T04:39:40;23.85;;;23.85;;
73132;SDS011;61320;52.008;4.530;2023-05-14T04:42:06;24.05;;;24.05;;
73132;SDS011;61320;52.008;4.530;2023-05-14T04:44:35;24.52;;;24.51;;
73132;SDS011;61320;52.008;4.530;2023-05-14T04:47:01;23.89;;;23.82;;
73132;SDS011;61320;52.008;4.530;2023-05-14T04:49:27;24.23;;;24.22;;
73132;SDS011;61320;52.008;4.530;2023-05-14T04:51:53;24.50;;;24.50;;
73132;SDS011;61320;52.008;4.530;2023-05-14T04:54:18;23.39;;;23.38;;
73132;SDS011;61320;52.008;4.530;2023-05-14T04:56:44;23.90;;;23.90;;
73132;SDS011;61320;52.008;4.530;2023-05-14T04:59:09;23.16;;;23.16;;
73132;SDS011;61320;52.008;4.530;2023-05-14T05:01:35;23.63;;;23.63;;
73132;SDS011;61320;52.008;4.530;2023-05-14T05:04:00;24.39;;;24.39;;
73132;SDS011;61320;52.008;4.530;2023-05-14T05:06:26;24.08;;;24.02;;
73132;SDS011;61320;52.008;4.530;2023-05-14T05:08:51;23.70;;;23.57;;
73132;SDS011;61320;52.008;4.530;2023-05-14T05:11:17;24.56;;;24.56;;
73132;SDS011;61320;52.008;4.530;2023-05-14T05:13:42;24.60;;;24.57;;
73132;SDS011;61320;52.008;4.530;2023-05-14T05:16:08;24.64;;;24.31;;
73132;SDS011;61320;52.008;4.530;2023-05-14T05:18:33;23.46;;;23.46;;
73132;SDS011;61320;52.008;4.530;2023-05-14T05:20:58;24.33;;;24.20;;
73132;SDS011;61320;52.008;4.530;2023-05-14T05:23:24;23.69;;;23.51;;
73132;SDS011;61320;52.008;4.530;2023-05-14T05:25:50;23.55;;;23.55;;
73132;SDS011;61320;52.008;4.530;2023-05-14T05:28:15;24.16;;;23.91;;
73132;SDS011;61320;52.008;4.530;2023-05-14T05:30:41;24.92;;;24.83;;
73132;SDS011;61320;52.008;4.530;2023-05-14T05:33:09;24.07;;;23.98;;
73132;SDS011;61320;52.008;4.530;2023-05-14T05:35:35;23.49;;;23.49;;
73132;SDS011;61320;52.008;4.530;2023-05-14T05:38:01;24.33;;;24.30;;
73132;SDS011;61320;52.008;4.530;2023-05-14T05:40:26;24.11;;;24.05;;
73132;SDS011;61320;52.008;4.530;2023-05-14T05:42:52;25.20;;;25.17;;
73132;SDS011;61320;52.008;4.530;2023-05-14T05:45:17;26.40;;;26.32;;
73132;SDS011;61320;52.008;4.530;2023-05-14T05:47:43;27.03;;;26.97;;
73132;SDS011;61320;52.008;4.530;2023-05-14T05:50:08;26.57;;;26.37;;
73132;SDS011;61320;52.008;4.530;2023-05-14T05:52:34;27.97;;;27.42;;
73132;SDS011;61320;52.008;4.530;2023-05-14T05:55:00;28.30;;;28.24;;
73132;SDS011;61320;52.008;4.530;2023-05-14T05:57:25;28.19;;;27.86;;
73132;SDS011;61320;52.008;4.530;2023-05-14T05:59:51;26.96;;;26.83;;
73132;SDS011;61320;52.008;4.530;2023-05-14T06:02:17;27.51;;;26.98;;
73132;SDS011;61320;52.008;4.530;2023-05-14T06:04:43;27.29;;;26.94;;
73132;SDS011;61320;52.008;4.530;2023-05-14T06:07:09;29.05;;;28.72;;
73132;SDS011;61320;52.008;4.530;2023-05-14T06:09:34;30.68;;;30.20;;
73132;SDS011;61320;52.008;4.530;2023-05-14T06:12:00;32.32;;;31.29;;
73132;SDS011;61320;52.008;4.530;2023-05-14T06:14:25;31.70;;;30.76;;
73132;SDS011;61320;52.008;4.530;2023-05-14T06:16:50;31.50;;;30.46;;
73132;SDS011;61320;52.008;4.530;2023-05-14T06:19:16;31.79;;;30.83;;
73132;SDS011;61320;52.008;4.530;2023-05-14T06:21:42;33.61;;;32.86;;
73132;SDS011;61320;52.008;4.530;2023-05-14T06:24:07;34.29;;;33.08;;
73132;SDS011;61320;52.008;4.530;2023-05-14T06:26:33;33.22;;;32.12;;
73132;SDS011;61320;52.008;4.530;2023-05-14T06:28:58;33.15;;;32.26;;
73132;SDS011;61320;52.008;4.530;2023-05-14T06:31:23;34.29;;;33.30;;
73132;SDS011;61320;52.008;4.530;2023-05-14T06:33:49;35.60;;;34.49;;
73132;SDS011;61320;52.008;4.530;2023-05-14T06:36:14;35.31;;;33.97;;
73132;SDS011;61320;52.008;4.530;2023-05-14T06:38:40;33.33;;;32.39;;
73132;SDS011;61320;52.008;4.530;2023-05-14T06:41:05;32.52;;;31.75;;
73132;SDS011;61320;52.008;4.530;2023-05-14T06:43:31;32.87;;;32.26;;
73132;SDS011;61320;52.008;4.530;2023-05-14T06:45:56;31.76;;;31.31;;
73132;SDS011;61320;52.008;4.530;2023-05-14T06:48:21;31.27;;;30.94;;
73132;SDS011;61320;52.008;4.530;2023-05-14T06:50:47;29.93;;;29.92;;
73132;SDS011;61320;52.008;4.530;2023-05-14T06:53:13;30.20;;;30.12;;
73132;SDS011;61320;52.008;4.530;2023-05-14T06:55:39;29.83;;;29.69;;
73132;SDS011;61320;52.008;4.530;2023-05-14T06:58:05;30.48;;;30.48;;
73132;SDS011;61320;52.008;4.530;2023-05-14T07:00:32;29.27;;;29.25;;
73132;SDS011;61320;52.008;4.530;2023-05-14T07:02:57;29.85;;;29.51;;
73132;SDS011;61320;52.008;4.530;2023-05-14T07:05:23;27.59;;;27.47;;
73132;SDS011;61320;52.008;4.530;2023-05-14T07:07:49;26.54;;;26.54;;
73132;SDS011;61320;52.008;4.530;2023-05-14T07:10:15;26.79;;;26.78;;
73132;SDS011;61320;52.008;4.530;2023-05-14T07:12:40;25.82;;;25.82;;
73132;SDS011;61320;52.008;4.530;2023-05-14T07:15:06;26.24;;;26.07;;
73132;SDS011;61320;52.008;4.530;2023-05-14T07:17:32;25.45;;;25.45;;
73132;SDS011;61320;52.008;4.530;2023-05-14T07:19:57;26.69;;;26.67;;
73132;SDS011;61320;52.008;4.530;2023-05-14T07:22:23;26.06;;;26.06;;
73132;SDS011;61320;52.008;4.530;2023-05-14T07:24:48;27.47;;;27.47;;
73132;SDS011;61320;52.008;4.530;2023-05-14T07:27:14;26.86;;;26.84;;
73132;SDS011;61320;52.008;4.530;2023-05-14T07:29:41;27.16;;;27.16;;
73132;SDS011;61320;52.008;4.530;2023-05-14T07:32:07;28.74;;;28.74;;
73132;SDS011;61320;52.008;4.530;2023-05-14T07:34:32;29.32;;;29.32;;
73132;SDS011;61320;52.008;4.530;2023-05-14T07:36:58;28.62;;;28.62;;
73132;SDS011;61320;52.008;4.530;2023-05-14T07:39:23;27.22;;;27.22;;
73132;SDS011;61320;52.008;4.530;2023-05-14T07:41:49;25.66;;;25.66;;
73132;SDS011;61320;52.008;4.530;2023-05-14T07:44:15;24.71;;;24.71;;
73132;SDS011;61320;52.008;4.530;2023-05-14T07:46:40;23.90;;;23.89;;
73132;SDS011;61320;52.008;4.530;2023-05-14T07:49:06;24.04;;;24.04;;
73132;SDS011;61320;52.008;4.530;2023-05-14T07:51:32;23.94;;;23.94;;
73132;SDS011;61320;52.008;4.530;2023-05-14T07:53:57;22.96;;;22.96;;
73132;SDS011;61320;52.008;4.530;2023-05-14T07:56:23;24.31;;;24.31;;
73132;SDS011;61320;52.008;4.530;2023-05-14T07:58:51;25.09;;;25.09;;
73132;SDS011;61320;52.008;4.530;2023-05-14T08:01:17;25.15;;;25.15;;
73132;SDS011;61320;52.008;4.530;2023-05-14T08:03:42;26.19;;;26.19;;
73132;SDS011;61320;52.008;4.530;2023-05-14T08:06:08;27.30;;;27.29;;
73132;SDS011;61320;52.008;4.530;2023-05-14T08:08:33;26.25;;;26.25;;
73132;SDS011;61320;52.008;4.530;2023-05-14T08:10:59;26.26;;;26.24;;
73132;SDS011;61320;52.008;4.530;2023-05-14T08:13:24;25.82;;;25.80;;
73132;SDS011;61320;52.008;4.530;2023-05-14T08:15:50;24.33;;;24.33;;
73132;SDS011;61320;52.008;4.530;2023-05-14T08:18:15;22.14;;;22.14;;
73132;SDS011;61320;52.008;4.530;2023-05-14T08:20:41;21.16;;;21.16;;
73132;SDS011;61320;52.008;4.530;2023-05-14T08:23:06;20.71;;;20.71;;
73132;SDS011;61320;52.008;4.530;2023-05-14T08:25:33;18.23;;;18.23;;
73132;SDS011;61320;52.008;4.530;2023-05-14T08:27:59;16.69;;;16.69;;
73132;SDS011;61320;52.008;4.530;2023-05-14T08:30:25;14.73;;;14.73;;
73132;SDS011;61320;52.008;4.530;2023-05-14T08:32:51;13.86;;;13.86;;
73132;SDS011;61320;52.008;4.530;2023-05-14T08:35:17;13.40;;;13.40;;
73132;SDS011;61320;52.008;4.530;2023-05-14T08:37:43;12.99;;;12.99;;
73132;SDS011;61320;52.008;4.530;2023-05-14T08:40:09;12.79;;;12.79;;
73132;SDS011;61320;52.008;4.530;2023-05-14T08:42:37;13.80;;;13.80;;
73132;SDS011;61320;52.008;4.530;2023-05-14T08:45:12;13.52;;;13.52;;
73132;SDS011;61320;52.008;4.530;2023-05-14T08:47:46;13.21;;;13.21;;
73132;SDS011;61320;52.008;4.530;2023-05-14T08:50:14;13.49;;;13.49;;
73132;SDS011;61320;52.008;4.530;2023-05-14T08:52:40;13.04;;;13.04;;
73132;SDS011;61320;52.008;4.530;2023-05-14T08:55:06;12.26;;;12.26;;
73132;SDS011;61320;52.008;4.530;2023-05-14T08:57:33;12.86;;;12.86;;
73132;SDS011;61320;52.008;4.530;2023-05-14T09:00:00;12.05;;;12.05;;
73132;SDS011;61320;52.008;4.530;2023-05-14T09:02:32;12.40;;;12.40;;
73132;SDS011;61320;52.008;4.530;2023-05-14T09:04:59;12.25;;;12.25;;
73132;SDS011;61320;52.008;4.530;2023-05-14T09:07:26;11.83;;;11.83;;
73132;SDS011;61320;52.008;4.530;2023-05-14T09:09:52;11.51;;;11.51;;
73132;SDS011;61320;52.008;4.530;2023-05-14T09:12:18;12.13;;;12.13;;
73132;SDS011;61320;52.008;4.530;2023-05-14T09:14:46;12.76;;;12.76;;
73132;SDS011;61320;52.008;4.530;2023-05-14T09:17:12;12.88;;;12.88;;
73132;SDS011;61320;52.008;4.530;2023-05-14T09:19:39;12.49;;;12.49;;
73132;SDS011;61320;52.008;4.530;2023-05-14T09:22:10;12.66;;;12.66;;
73132;SDS011;61320;52.008;4.530;2023-05-14T09:24:36;12.60;;;12.60;;
73132;SDS011;61320;52.008;4.530;2023-05-14T09:27:03;12.43;;;12.43;;
73132;SDS011;61320;52.008;4.530;2023-05-14T09:29:30;12.85;;;12.85;;
73132;SDS011;61320;52.008;4.530;2023-05-14T09:31:56;12.65;;;12.65;;
73132;SDS011;61320;52.008;4.530;2023-05-14T09:34:27;12.70;;;12.70;;
73132;SDS011;61320;52.008;4.530;2023-05-14T09:36:58;13.20;;;13.20;;
73132;SDS011;61320;52.008;4.530;2023-05-14T09:39:26;12.69;;;12.69;;
73132;SDS011;61320;52.008;4.530;2023-05-14T09:41:52;12.62;;;12.62;;
73132;SDS011;61320;52.008;4.530;2023-05-14T09:44:18;12.05;;;12.05;;
73132;SDS011;61320;52.008;4.530;2023-05-14T09:46:45;11.47;;;11.47;;
73132;SDS011;61320;52.008;4.530;2023-05-14T09:49:11;11.62;;;11.62;;
73132;SDS011;61320;52.008;4.530;2023-05-14T09:51:37;11.84;;;11.84;;
73132;SDS011;61320;52.008;4.530;2023-05-14T09:54:03;11.81;;;11.81;;
73132;SDS011;61320;52.008;4.530;2023-05-14T09:56:31;11.20;;;11.20;;
73132;SDS011;61320;52.008;4.530;2023-05-14T09:58:58;11.05;;;11.05;;
73132;SDS011;61320;52.008;4.530;2023-05-14T10:01:24;11.05;;;11.05;;
73132;SDS011;61320;52.008;4.530;2023-05-14T10:03:51;11.54;;;11.54;;
73132;SDS011;61320;52.008;4.530;2023-05-14T10:06:18;11.43;;;11.43;;
73132;SDS011;61320;52.008;4.530;2023-05-14T10:08:51;11.31;;;11.31;;
73132;SDS011;61320;52.008;4.530;2023-05-14T10:11:21;11.52;;;11.52;;
73132;SDS011;61320;52.008;4.530;2023-05-14T10:14:12;11.81;;;11.81;;
73132;SDS011;61320;52.008;4.530;2023-05-14T10:16:49;11.62;;;11.62;;
73132;SDS011;61320;52.008;4.530;2023-05-14T10:19:16;11.79;;;11.79;;
73132;SDS011;61320;52.008;4.530;2023-05-14T10:21:44;12.11;;;12.11;;
73132;SDS011;61320;52.008;4.530;2023-05-14T10:24:13;12.31;;;12.31;;
73132;SDS011;61320;52.008;4.530;2023-05-14T10:26:40;11.92;;;11.92;;
73132;SDS011;61320;52.008;4.530;2023-05-14T10:29:10;11.94;;;11.94;;
73132;SDS011;61320;52.008;4.530;2023-05-14T10:37:19;11.40;;;11.40;;
73132;SDS011;61320;52.008;4.530;2023-05-14T10:39:50;10.65;;;10.65;;
73132;SDS011;61320;52.008;4.530;2023-05-14T10:44:50;10.25;;;10.25;;
73132;SDS011;61320;52.008;4.530;2023-05-14T10:47:22;10.27;;;10.27;;
73132;SDS011;61320;52.008;4.530;2023-05-14T10:49:51;9.71;;;9.71;;
73132;SDS011;61320;52.008;4.530;2023-05-14T10:52:18;9.75;;;9.75;;
73132;SDS011;61320;52.008;4.530;2023-05-14T10:54:56;9.66;;;9.66;;
73132;SDS011;61320;52.008;4.530;2023-05-14T10:57:24;9.13;;;9.13;;
73132;SDS011;61320;52.008;4.530;2023-05-14T10:59:52;8.80;;;8.80;;
73132;SDS011;61320;52.008;4.530;2023-05-14T11:02:24;9.35;;;9.35;;
73132;SDS011;61320;52.008;4.530;2023-05-14T11:04:52;9.19;;;9.19;;
73132;SDS011;61320;52.008;4.530;2023-05-14T11:07:22;9.50;;;9.50;;
73132;SDS011;61320;52.008;4.530;2023-05-14T11:10:03;8.94;;;8.94;;
73132;SDS011;61320;52.008;4.530;2023-05-14T11:12:37;9.86;;;9.86;;
73132;SDS011;61320;52.008;4.530;2023-05-14T11:15:08;10.41;;;10.41;;
73132;SDS011;61320;52.008;4.530;2023-05-14T11:17:37;9.78;;;9.78;;
73132;SDS011;61320;52.008;4.530;2023-05-14T11:20:08;10.00;;;10.00;;
73132;SDS011;61320;52.008;4.530;2023-05-14T11:22:35;9.88;;;9.88;;
73132;SDS011;61320;52.008;4.530;2023-05-14T11:25:01;10.10;;;10.10;;
73132;SDS011;61320;52.008;4.530;2023-05-14T11:27:27;10.48;;;10.48;;
73132;SDS011;61320;52.008;4.530;2023-05-14T11:29:54;9.98;;;9.98;;
73132;SDS011;61320;52.008;4.530;2023-05-14T11:32:20;10.00;;;10.00;;
73132;SDS011;61320;52.008;4.530;2023-05-14T11:34:46;10.36;;;10.36;;
73132;SDS011;61320;52.008;4.530;2023-05-14T11:37:12;10.50;;;10.50;;
73132;SDS011;61320;52.008;4.530;2023-05-14T11:39:49;10.44;;;10.44;;
73132;SDS011;61320;52.008;4.530;2023-05-14T11:42:17;10.52;;;10.52;;
73132;SDS011;61320;52.008;4.530;2023-05-14T11:44:47;10.18;;;10.18;;
73132;SDS011;61320;52.008;4.530;2023-05-14T11:47:16;10.33;;;10.33;;
73132;SDS011;61320;52.008;4.530;2023-05-14T11:49:43;9.89;;;9.89;;
73132;SDS011;61320;52.008;4.530;2023-05-14T11:52:08;9.93;;;9.93;;
73132;SDS011;61320;52.008;4.530;2023-05-14T11:54:36;10.68;;;10.68;;
73132;SDS011;61320;52.008;4.530;2023-05-14T11:57:06;9.79;;;9.79;;
73132;SDS011;61320;52.008;4.530;2023-05-14T11:59:37;10.24;;;10.24;;
73132;SDS011;61320;52.008;4.530;2023-05-14T12:02:03;10.26;;;10.26;;
73132;SDS011;61320;52.008;4.530;2023-05-14T12:04:32;11.10;;;11.10;;
73132;SDS011;61320;52.008;4.530;2023-05-14T12:06:59;10.17;;;10.17;;
73132;SDS011;61320;52.008;4.530;2023-05-14T12:09:34;10.01;;;10.01;;
73132;SDS011;61320;52.008;4.530;2023-05-14T12:12:07;10.14;;;10.14;;
73132;SDS011;61320;52.008;4.530;2023-05-14T12:14:38;9.85;;;9.85;;
73132;SDS011;61320;52.008;4.530;2023-05-14T12:17:19;10.86;;;10.86;;
73132;SDS011;61320;52.008;4.530;2023-05-14T12:19:46;10.65;;;10.65;;
73132;SDS011;61320;52.008;4.530;2023-05-14T12:22:17;9.94;;;9.94;;
73132;SDS011;61320;52.008;4.530;2023-05-14T12:27:23;9.81;;;9.81;;
73132;SDS011;61320;52.008;4.530;2023-05-14T12:30:03;9.93;;;9.93;;
73132;SDS011;61320;52.008;4.530;2023-05-14T12:32:31;9.02;;;9.02;;
73132;SDS011;61320;52.008;4.530;2023-05-14T12:34:57;9.76;;;9.76;;
73132;SDS011;61320;52.008;4.530;2023-05-14T12:37:23;10.59;;;10.59;;
73132;SDS011;61320;52.008;4.530;2023-05-14T12:39:49;10.31;;;10.31;;
73132;SDS011;61320;52.008;4.530;2023-05-14T12:42:14;9.85;;;9.85;;
73132;SDS011;61320;52.008;4.530;2023-05-14T12:44:40;9.68;;;9.68;;
73132;SDS011;61320;52.008;4.530;2023-05-14T12:47:06;9.81;;;9.81;;
73132;SDS011;61320;52.008;4.530;2023-05-14T12:49:32;9.74;;;9.74;;
73132;SDS011;61320;52.008;4.530;2023-05-14T12:51:57;9.41;;;9.41;;
73132;SDS011;61320;52.008;4.530;2023-05-14T12:54:23;9.71;;;9.71;;
73132;SDS011;61320;52.008;4.530;2023-05-14T12:56:48;9.89;;;9.89;;
73132;SDS011;61320;52.008;4.530;2023-05-14T12:59:14;9.25;;;9.25;;
73132;SDS011;61320;52.008;4.530;2023-05-14T13:01:39;9.37;;;9.37;;
73132;SDS011;61320;52.008;4.530;2023-05-14T13:04:05;10.63;;;10.63;;
73132;SDS011;61320;52.008;4.530;2023-05-14T13:06:32;11.78;;;11.78;;
73132;SDS011;61320;52.008;4.530;2023-05-14T13:08:57;10.58;;;10.58;;
73132;SDS011;61320;52.008;4.530;2023-05-14T13:11:25;9.48;;;9.48;;
73132;SDS011;61320;52.008;4.530;2023-05-14T13:13:53;9.26;;;9.26;;
73132;SDS011;61320;52.008;4.530;2023-05-14T13:16:19;9.23;;;9.23;;
73132;SDS011;61320;52.008;4.530;2023-05-14T13:18:45;9.29;;;9.29;;
73132;SDS011;61320;52.008;4.530;2023-05-14T13:21:10;9.41;;;9.41;;
73132;SDS011;61320;52.008;4.530;2023-05-14T13:23:36;8.88;;;8.88;;
73132;SDS011;61320;52.008;4.530;2023-05-14T13:26:02;9.67;;;9.67;;
73132;SDS011;61320;52.008;4.530;2023-05-14T13:28:28;9.72;;;9.72;;
73132;SDS011;61320;52.008;4.530;2023-05-14T13:33:36;8.65;;;8.65;;
73132;SDS011;61320;52.008;4.530;2023-05-14T13:36:04;9.43;;;9.43;;
73132;SDS011;61320;52.008;4.530;2023-05-14T13:38:30;8.99;;;8.99;;
73132;SDS011;61320;52.008;4.530;2023-05-14T13:40:56;9.61;;;9.61;;
73132;SDS011;61320;52.008;4.530;2023-05-14T13:43:26;9.19;;;9.19;;
73132;SDS011;61320;52.008;4.530;2023-05-14T13:45:52;8.53;;;8.53;;
73132;SDS011;61320;52.008;4.530;2023-05-14T13:48:18;9.35;;;9.35;;
73132;SDS011;61320;52.008;4.530;2023-05-14T13:50:43;9.04;;;9.04;;
73132;SDS011;61320;52.008;4.530;2023-05-14T13:53:08;9.51;;;9.51;;
73132;SDS011;61320;52.008;4.530;2023-05-14T13:55:34;9.31;;;9.31;;
73132;SDS011;61320;52.008;4.530;2023-05-14T13:58:00;9.43;;;9.43;;
73132;SDS011;61320;52.008;4.530;2023-05-14T14:00:26;9.69;;;9.69;;
73132;SDS011;61320;52.008;4.530;2023-05-14T14:02:52;9.14;;;9.14;;
73132;SDS011;61320;52.008;4.530;2023-05-14T14:05:17;8.99;;;8.99;;
73132;SDS011;61320;52.008;4.530;2023-05-14T14:07:43;9.04;;;9.04;;
73132;SDS011;61320;52.008;4.530;2023-05-14T14:10:08;8.52;;;8.52;;
73132;SDS011;61320;52.008;4.530;2023-05-14T14:12:34;8.65;;;8.65;;
73132;SDS011;61320;52.008;4.530;2023-05-14T14:14:59;8.74;;;8.74;;
73132;SDS011;61320;52.008;4.530;2023-05-14T14:17:26;9.09;;;9.09;;
73132;SDS011;61320;52.008;4.530;2023-05-14T14:19:52;9.45;;;9.45;;
73132;SDS011;61320;52.008;4.530;2023-05-14T14:22:17;9.69;;;9.69;;
73132;SDS011;61320;52.008;4.530;2023-05-14T14:24:43;9.60;;;9.60;;
73132;SDS011;61320;52.008;4.530;2023-05-14T14:27:09;9.01;;;9.01;;
73132;SDS011;61320;52.008;4.530;2023-05-14T14:29:34;8.77;;;8.77;;
73132;SDS011;61320;52.008;4.530;2023-05-14T14:32:01;8.22;;;8.22;;
73132;SDS011;61320;52.008;4.530;2023-05-14T14:34:26;8.09;;;8.09;;
73132;SDS011;61320;52.008;4.530;2023-05-14T14:36:52;8.60;;;8.60;;
73132;SDS011;61320;52.008;4.530;2023-05-14T14:39:17;9.02;;;9.02;;
73132;SDS011;61320;52.008;4.530;2023-05-14T14:41:43;8.98;;;8.98;;
73132;SDS011;61320;52.008;4.530;2023-05-14T14:44:08;8.77;;;8.77;;
73132;SDS011;61320;52.008;4.530;2023-05-14T14:46:34;9.04;;;9.04;;